createdAt,value
2022-08-17T00:00:12.051Z,21.83
2022-08-17T00:03:10.524Z,21.79
2022-08-17T00:05:43.952Z,21.75
2022-08-17T00:08:14.909Z,21.76
2022-08-17T00:10:44.793Z,21.75
2022-08-17T00:13:17.841Z,21.76
2022-08-17T00:15:47.192Z,21.75
2022-08-17T00:19:02.047Z,21.76
2022-08-17T00:21:05.689Z,21.75
2022-08-17T00:23:47.910Z,21.74
2022-08-17T00:26:43.716Z,21.73
2022-08-17T00:29:07.449Z,21.71
2022-08-17T00:31:35.844Z,21.67
2022-08-17T00:34:05.283Z,21.63
2022-08-17T00:36:32.813Z,21.60
2022-08-17T00:39:00.341Z,21.56
2022-08-17T00:41:28.953Z,21.54
2022-08-17T00:44:03.691Z,21.51
2022-08-17T00:46:39.504Z,21.50
2022-08-17T00:49:09.444Z,21.50
2022-08-17T00:51:55.448Z,21.50
2022-08-17T00:54:29.866Z,21.49
2022-08-17T00:57:02.722Z,21.48
2022-08-17T00:59:37.024Z,21.46
2022-08-17T01:02:06.475Z,21.44
2022-08-17T01:04:34.350Z,21.40
2022-08-17T01:07:04.702Z,21.37
2022-08-17T01:09:33.613Z,21.33
2022-08-17T01:12:01.682Z,21.27
2022-08-17T01:14:29.229Z,21.24
2022-08-17T01:16:56.934Z,21.19
2022-08-17T01:19:31.512Z,21.16
2022-08-17T01:22:17.993Z,21.13
2022-08-17T01:24:49.951Z,21.12
2022-08-17T01:27:18.628Z,21.10
2022-08-17T01:29:52.453Z,21.08
2022-08-17T01:32:20.782Z,21.05
2022-08-17T01:34:50.485Z,21.01
2022-08-17T01:37:20.212Z,20.99
2022-08-17T01:39:56.575Z,20.93
2022-08-17T01:42:32.683Z,20.90
2022-08-17T01:45:18.224Z,20.85
2022-08-17T01:47:46.582Z,20.80
2022-08-17T01:50:19.030Z,20.75
2022-08-17T01:52:49.494Z,20.71
2022-08-17T01:55:27.127Z,20.66
2022-08-17T01:57:55.233Z,20.59
2022-08-17T02:00:23.212Z,20.56
2022-08-17T02:03:10.669Z,20.52
2022-08-17T02:05:40.601Z,20.45
2022-08-17T02:08:08.191Z,20.43
2022-08-17T02:10:49.843Z,20.36
2022-08-17T02:13:20.221Z,20.31
2022-08-17T02:15:47.760Z,20.27
2022-08-17T02:18:17.073Z,20.22
2022-08-17T02:20:44.651Z,20.20
2022-08-17T02:26:05.653Z,20.14
2022-08-17T02:28:33.432Z,20.14
2022-08-17T02:31:10.201Z,20.16
2022-08-17T02:33:42.545Z,20.18
2022-08-17T02:36:12.984Z,20.17
2022-08-17T02:38:42.418Z,20.15
2022-08-17T02:41:10.002Z,20.13
2022-08-17T02:43:37.572Z,20.12
2022-08-17T02:46:05.097Z,20.12
2022-08-17T02:48:32.571Z,20.11
2022-08-17T02:51:01.361Z,20.09
2022-08-17T02:53:35.555Z,20.05
2022-08-17T02:56:04.462Z,20.03
2022-08-17T02:58:35.011Z,19.99
2022-08-17T03:01:09.773Z,19.95
2022-08-17T03:03:38.777Z,19.92
2022-08-17T03:06:07.846Z,19.92
2022-08-17T03:08:36.562Z,19.88
2022-08-17T03:11:04.272Z,19.86
2022-08-17T03:13:31.882Z,19.84
2022-08-17T03:15:59.443Z,19.83
2022-08-17T03:18:28.136Z,19.81
2022-08-17T03:20:58.073Z,19.77
2022-08-17T03:23:27.313Z,19.73
2022-08-17T03:25:56.067Z,19.69
2022-08-17T03:28:25.036Z,19.65
2022-08-17T03:30:53.082Z,19.63
2022-08-17T03:33:20.813Z,19.60
2022-08-17T03:35:49.188Z,19.59
2022-08-17T03:38:17.554Z,19.57
2022-08-17T03:40:56.878Z,19.54
2022-08-17T03:43:32.072Z,19.48
2022-08-17T03:46:27.900Z,19.44
2022-08-17T03:49:21.728Z,19.40
2022-08-17T03:52:07.913Z,19.36
2022-08-17T03:54:54.412Z,19.36
2022-08-17T03:57:21.974Z,19.35
2022-08-17T03:59:50.202Z,19.39
2022-08-17T04:02:28.692Z,19.49
2022-08-17T04:04:57.304Z,19.64
2022-08-17T04:07:27.899Z,19.83
2022-08-17T04:09:55.548Z,20.02
2022-08-17T04:12:24.563Z,20.07
2022-08-17T04:14:54.659Z,20.14
2022-08-17T04:17:26.074Z,20.28
2022-08-17T04:19:54.551Z,20.64
2022-08-17T04:22:30.601Z,21.05
2022-08-17T04:25:20.239Z,21.49
2022-08-17T04:27:48.901Z,21.47
2022-08-17T04:30:16.466Z,21.36
2022-08-17T04:33:20.628Z,21.61
2022-08-17T04:35:51.308Z,22.07
2022-08-17T04:38:21.684Z,22.49
2022-08-17T04:41:07.967Z,23.06
2022-08-17T04:43:37.685Z,23.68
2022-08-17T04:46:09.047Z,24.19
2022-08-17T04:48:44.901Z,24.10
2022-08-17T04:51:13.891Z,23.92
2022-08-17T04:53:44.460Z,24.41
2022-08-17T04:56:16.937Z,25.05
2022-08-17T04:58:49.896Z,25.63
2022-08-17T05:01:23.831Z,26.12
2022-08-17T05:03:54.061Z,26.57
2022-08-17T05:06:22.800Z,26.91
2022-08-17T05:08:50.322Z,27.18
2022-08-17T05:11:18.783Z,27.59
2022-08-17T05:13:46.643Z,27.87
2022-08-17T05:16:14.141Z,28.10
2022-08-17T05:18:41.723Z,28.55
2022-08-17T05:21:09.293Z,28.82
2022-08-17T05:23:41.716Z,29.17
2022-08-17T05:26:23.167Z,29.41
2022-08-17T05:28:54.763Z,29.60
2022-08-17T05:31:25.456Z,29.76
2022-08-17T05:33:53.512Z,30.08
2022-08-17T05:36:37.870Z,30.28
2022-08-17T05:39:08.722Z,30.74
2022-08-17T05:41:43.243Z,30.92
2022-08-17T05:44:11.803Z,31.04
2022-08-17T05:46:43.673Z,31.27
2022-08-17T05:49:14.033Z,31.01
2022-08-17T05:51:59.859Z,30.64
2022-08-17T05:54:39.710Z,29.87
2022-08-17T05:57:47.641Z,29.38
2022-08-17T06:00:35.421Z,29.36
2022-08-17T06:03:19.079Z,29.03
2022-08-17T06:06:20.275Z,29.00
2022-08-17T06:09:35.883Z,28.77
2022-08-17T06:12:14.217Z,28.51
2022-08-17T06:14:58.553Z,28.62
2022-08-17T06:17:27.249Z,28.67
2022-08-17T06:20:10.715Z,28.93
2022-08-17T06:22:49.713Z,29.17
2022-08-17T06:25:48.130Z,29.46
2022-08-17T06:28:31.154Z,29.15
2022-08-17T06:31:07.029Z,29.04
2022-08-17T06:33:38.359Z,28.84
2022-08-17T06:36:39.597Z,28.87
2022-08-17T06:39:44.762Z,28.43
2022-08-17T06:43:02.331Z,27.83
2022-08-17T06:45:38.326Z,27.17
2022-08-17T06:48:31.881Z,27.16
2022-08-17T06:51:19.273Z,27.07
2022-08-17T06:53:59.807Z,27.19
2022-08-17T06:56:54.358Z,27.52
2022-08-17T06:59:53.176Z,27.74
2022-08-17T07:02:52.249Z,27.79
2022-08-17T07:05:39.572Z,28.05
2022-08-17T07:08:35.023Z,28.09
2022-08-17T07:11:13.153Z,28.08
2022-08-17T07:14:17.211Z,27.72
2022-08-17T07:16:49.063Z,27.63
2022-08-17T07:19:19.992Z,27.70
2022-08-17T07:22:14.169Z,27.98
2022-08-17T07:24:47.581Z,28.22
2022-08-17T07:27:22.119Z,28.71
2022-08-17T07:29:53.802Z,28.68
2022-08-17T07:32:34.443Z,28.89
2022-08-17T07:35:15.144Z,29.29
2022-08-17T07:37:55.723Z,29.53
2022-08-17T07:40:34.284Z,29.70
2022-08-17T07:43:15.590Z,30.26
2022-08-17T07:46:16.983Z,30.04
2022-08-17T07:48:50.534Z,29.80
2022-08-17T07:51:26.642Z,29.60
2022-08-17T07:54:13.082Z,29.98
2022-08-17T07:56:50.354Z,30.42
2022-08-17T07:59:33.980Z,30.11
2022-08-17T08:02:16.288Z,29.85
2022-08-17T08:05:01.338Z,30.02
2022-08-17T08:07:40.194Z,29.84
2022-08-17T08:10:16.063Z,29.77
2022-08-17T08:13:05.947Z,29.57
2022-08-17T08:15:45.244Z,29.17
2022-08-17T08:18:55.493Z,28.86
2022-08-17T08:21:47.340Z,28.76
2022-08-17T08:24:30.084Z,28.74
2022-08-17T08:27:55.900Z,28.82
2022-08-17T08:30:23.724Z,29.09
2022-08-17T08:33:04.964Z,29.46
2022-08-17T08:35:59.344Z,29.49
2022-08-17T08:38:53.659Z,29.09
2022-08-17T08:41:30.213Z,29.59
2022-08-17T08:44:06.632Z,29.47
2022-08-17T08:46:42.559Z,29.62
2022-08-17T08:49:12.853Z,29.72
2022-08-17T08:51:57.514Z,30.39
2022-08-17T08:54:42.709Z,29.97
2022-08-17T08:57:59.530Z,29.68
2022-08-17T09:00:32.953Z,29.87
2022-08-17T09:03:20.305Z,30.30
2022-08-17T09:06:03.785Z,30.29
2022-08-17T09:08:55.929Z,30.25
2022-08-17T09:11:32.292Z,30.46
2022-08-17T09:14:21.546Z,30.76
2022-08-17T09:17:05.875Z,30.80
2022-08-17T09:19:45.665Z,30.44
2022-08-17T09:22:24.370Z,29.95
2022-08-17T09:24:58.545Z,29.54
2022-08-17T09:27:50.678Z,29.04
2022-08-17T09:30:19.794Z,28.95
2022-08-17T09:32:52.196Z,28.78
2022-08-17T09:35:45.713Z,28.83
2022-08-17T09:38:35.300Z,28.98
2022-08-17T09:41:48.983Z,29.10
2022-08-17T09:44:37.156Z,28.73
2022-08-17T09:47:22.752Z,28.94
2022-08-17T09:49:56.874Z,28.96
2022-08-17T09:52:28.633Z,29.47
2022-08-17T09:54:58.353Z,29.98
2022-08-17T09:57:44.307Z,29.78
2022-08-17T10:00:25.652Z,29.97
2022-08-17T10:03:05.488Z,30.33
2022-08-17T10:05:57.023Z,30.77
2022-08-17T10:08:46.329Z,31.39
2022-08-17T10:12:09.264Z,31.52
2022-08-17T10:14:44.675Z,32.05
2022-08-17T10:17:56.489Z,31.15
2022-08-17T10:20:39.624Z,31.24
2022-08-17T10:23:33.580Z,31.61
2022-08-17T10:26:16.186Z,32.15
2022-08-17T10:28:43.616Z,31.53
2022-08-17T10:31:34.752Z,31.93
2022-08-17T10:34:08.493Z,32.44
2022-08-17T10:36:38.785Z,32.50
2022-08-17T10:39:21.965Z,32.83
2022-08-17T10:41:55.159Z,32.44
2022-08-17T10:45:19.264Z,32.15
2022-08-17T10:48:27.183Z,32.75
2022-08-17T10:50:59.945Z,33.04
2022-08-17T10:53:33.743Z,32.77
2022-08-17T10:56:22.512Z,33.38
2022-08-17T10:59:01.131Z,34.10
2022-08-17T11:01:34.466Z,33.99
2022-08-17T11:04:04.735Z,34.25
2022-08-17T11:06:47.317Z,34.20
2022-08-17T11:09:39.133Z,34.60
2022-08-17T11:12:20.948Z,35.05
2022-08-17T11:15:00.904Z,35.32
2022-08-17T11:17:53.767Z,35.61
2022-08-17T11:20:52.147Z,36.34
2022-08-17T11:23:47.159Z,36.68
2022-08-17T11:26:26.272Z,36.91
2022-08-17T11:29:01.547Z,35.84
2022-08-17T11:31:38.522Z,35.23
2022-08-17T11:34:17.587Z,33.78
2022-08-17T11:36:54.673Z,32.49
2022-08-17T11:39:44.437Z,31.88
2022-08-17T11:42:37.783Z,31.49
2022-08-17T11:45:32.375Z,31.69
2022-08-17T11:48:53.558Z,31.96
2022-08-17T11:51:36.156Z,32.36
2022-08-17T11:57:02.407Z,32.65
2022-08-17T11:59:46.081Z,33.27
2022-08-17T12:02:29.761Z,33.69
2022-08-17T12:05:27.532Z,34.02
2022-08-17T12:08:18.534Z,33.63
2022-08-17T12:10:58.385Z,33.56
2022-08-17T12:13:37.059Z,33.71
2022-08-17T12:16:08.678Z,33.33
2022-08-17T12:18:38.506Z,33.56
2022-08-17T12:21:15.557Z,33.76
2022-08-17T12:23:56.951Z,33.60
2022-08-17T12:26:33.246Z,34.07
2022-08-17T12:29:38.915Z,34.18
2022-08-17T12:31:56.386Z,34.17
2022-08-17T12:34:36.037Z,33.83
2022-08-17T12:37:12.992Z,33.67
2022-08-17T12:39:51.835Z,33.45
2022-08-17T12:42:26.261Z,33.88
2022-08-17T12:44:53.841Z,34.07
2022-08-17T12:47:23.167Z,34.21
2022-08-17T12:49:55.475Z,34.04
2022-08-17T12:52:32.957Z,33.71
2022-08-17T12:55:15.435Z,32.92
2022-08-17T12:57:46.665Z,32.76
2022-08-17T13:00:31.462Z,32.87
2022-08-17T13:03:09.750Z,33.04
2022-08-17T13:05:53.885Z,33.27
2022-08-17T13:08:32.278Z,33.58
2022-08-17T13:11:05.171Z,33.63
2022-08-17T13:13:39.235Z,33.63
2022-08-17T13:16:27.005Z,33.93
2022-08-17T13:19:12.896Z,34.03
2022-08-17T13:21:48.286Z,34.23
2022-08-17T13:24:24.035Z,34.31
2022-08-17T13:27:15.464Z,33.73
2022-08-17T13:29:45.935Z,33.70
2022-08-17T13:32:33.646Z,33.91
2022-08-17T13:35:11.912Z,33.80
2022-08-17T13:38:04.597Z,33.13
2022-08-17T13:40:36.717Z,33.37
2022-08-17T13:43:05.557Z,32.95
2022-08-17T13:45:51.291Z,32.93
2022-08-17T13:48:32.270Z,32.94
2022-08-17T13:51:02.202Z,32.79
2022-08-17T13:53:40.385Z,33.06
2022-08-17T13:56:33.195Z,32.81
2022-08-17T13:59:11.766Z,33.75
2022-08-17T14:01:43.922Z,34.05
2022-08-17T14:04:20.692Z,34.33
2022-08-17T14:07:22.549Z,33.84
2022-08-17T14:10:01.675Z,33.77
2022-08-17T14:12:32.130Z,33.45
2022-08-17T14:15:00.431Z,32.95
2022-08-17T14:17:31.743Z,32.33
2022-08-17T14:20:04.643Z,31.97
2022-08-17T14:22:35.039Z,32.19
2022-08-17T14:25:02.883Z,32.32
2022-08-17T14:27:34.083Z,32.64
2022-08-17T14:30:14.993Z,33.11
2022-08-17T14:32:43.093Z,33.46
2022-08-17T14:35:12.857Z,33.85
2022-08-17T14:37:40.761Z,33.97
2022-08-17T14:40:11.589Z,33.69
2022-08-17T14:42:41.870Z,33.55
2022-08-17T14:45:29.957Z,33.63
2022-08-17T14:48:00.626Z,33.70
2022-08-17T14:50:28.164Z,33.64
2022-08-17T14:52:57.901Z,33.85
2022-08-17T14:55:26.183Z,33.76
2022-08-17T14:57:53.726Z,33.82
2022-08-17T15:00:21.430Z,33.57
2022-08-17T15:02:55.777Z,33.31
2022-08-17T15:05:26.242Z,33.22
2022-08-17T15:07:54.118Z,32.92
2022-08-17T15:10:22.079Z,32.70
2022-08-17T15:12:49.841Z,32.57
2022-08-17T15:15:18.241Z,32.79
2022-08-17T15:17:46.308Z,32.66
2022-08-17T15:20:21.543Z,32.63
2022-08-17T15:22:59.354Z,32.97
2022-08-17T15:25:29.660Z,33.01
2022-08-17T15:27:57.415Z,33.07
2022-08-17T15:30:26.802Z,33.02
2022-08-17T15:32:55.514Z,32.96
2022-08-17T15:35:28.263Z,32.99
2022-08-17T15:38:11.750Z,33.04
2022-08-17T15:40:44.097Z,32.99
2022-08-17T15:43:26.466Z,32.81
2022-08-17T15:46:04.621Z,32.77
2022-08-17T15:48:43.101Z,32.77
2022-08-17T15:51:28.681Z,32.71
2022-08-17T15:53:58.657Z,32.73
2022-08-17T15:56:27.641Z,32.74
2022-08-17T15:58:55.641Z,32.79
2022-08-17T16:02:11.974Z,32.81
2022-08-17T16:04:30.427Z,32.75
2022-08-17T16:07:00.360Z,32.79
2022-08-17T16:09:28.225Z,32.85
2022-08-17T16:11:56.425Z,32.79
2022-08-17T16:14:32.342Z,32.42
2022-08-17T16:17:04.726Z,32.53
2022-08-17T16:19:34.943Z,32.53
2022-08-17T16:22:04.319Z,32.56
2022-08-17T16:24:33.080Z,32.52
2022-08-17T16:27:01.550Z,32.53
2022-08-17T16:29:29.399Z,32.55
2022-08-17T16:31:58.136Z,32.48
2022-08-17T16:34:25.680Z,32.16
2022-08-17T16:36:55.507Z,31.99
2022-08-17T16:39:29.475Z,32.06
2022-08-17T16:41:57.866Z,31.92
2022-08-17T16:44:29.144Z,31.88
2022-08-17T16:46:57.626Z,31.80
2022-08-17T16:49:37.147Z,31.74
2022-08-17T16:52:10.703Z,31.64
2022-08-17T16:54:41.536Z,31.51
2022-08-17T16:57:11.300Z,31.43
2022-08-17T16:59:43.630Z,31.38
2022-08-17T17:02:23.801Z,31.25
2022-08-17T17:05:11.383Z,31.09
2022-08-17T17:07:55.576Z,30.98
2022-08-17T17:10:29.260Z,30.80
2022-08-17T17:13:01.724Z,30.75
2022-08-17T17:15:57.819Z,30.57
2022-08-17T17:18:40.575Z,30.45
2022-08-17T17:21:14.701Z,30.27
2022-08-17T17:24:00.420Z,30.15
2022-08-17T17:26:34.459Z,30.08
2022-08-17T17:29:09.459Z,30.06
2022-08-17T17:31:46.079Z,30.01
2022-08-17T17:34:16.415Z,29.95
2022-08-17T17:36:48.379Z,29.65
2022-08-17T17:39:20.801Z,29.47
2022-08-17T17:41:58.008Z,29.41
2022-08-17T17:44:30.299Z,29.39
2022-08-17T17:47:00.760Z,29.31
2022-08-17T17:49:33.219Z,29.22
2022-08-17T17:52:19.657Z,29.13
2022-08-17T17:55:19.619Z,28.92
2022-08-17T17:58:08.700Z,28.88
2022-08-17T18:00:57.658Z,28.86
2022-08-17T18:03:52.677Z,28.68
2022-08-17T18:06:59.538Z,28.51
2022-08-17T18:10:19.551Z,28.35
2022-08-17T18:13:14.941Z,28.23
2022-08-17T18:15:51.573Z,28.11
2022-08-17T18:18:22.317Z,28.06
2022-08-17T18:20:56.224Z,28.02
2022-08-17T18:23:28.160Z,27.93
2022-08-17T18:25:58.811Z,27.84
2022-08-17T18:28:31.186Z,27.72
2022-08-17T18:31:07.659Z,27.59
2022-08-17T18:33:36.798Z,27.51
2022-08-17T18:36:06.101Z,27.46
2022-08-17T18:38:40.459Z,27.33
2022-08-17T18:41:25.478Z,27.08
2022-08-17T18:44:22.060Z,26.77
2022-08-17T18:47:07.874Z,26.64
2022-08-17T18:49:35.975Z,26.61
2022-08-17T18:52:18.719Z,26.52
2022-08-17T18:55:09.053Z,26.43
2022-08-17T18:57:41.955Z,26.34
2022-08-17T19:00:36.379Z,26.24
2022-08-17T19:03:16.194Z,26.14
2022-08-17T19:06:14.114Z,26.07
2022-08-17T19:08:42.181Z,25.98
2022-08-17T19:11:29.255Z,25.86
2022-08-17T19:14:06.858Z,25.74
2022-08-17T19:16:51.919Z,25.62
2022-08-17T19:19:51.358Z,25.53
2022-08-17T19:22:58.819Z,25.39
2022-08-17T19:25:34.512Z,25.31
2022-08-17T19:28:12.690Z,25.26
2022-08-17T19:30:56.017Z,25.26
2022-08-17T19:33:25.519Z,25.21
2022-08-17T19:36:05.398Z,25.17
2022-08-17T19:38:48.075Z,25.11
2022-08-17T19:41:43.001Z,25.09
2022-08-17T19:44:17.709Z,25.08
2022-08-17T19:47:19.610Z,25.01
2022-08-17T19:50:04.057Z,25.01
2022-08-17T19:52:46.620Z,24.94
2022-08-17T19:55:43.776Z,24.89
2022-08-17T19:58:27.047Z,24.80
2022-08-17T20:00:55.527Z,24.74
2022-08-17T20:03:32.128Z,24.69
2022-08-17T20:06:12.451Z,24.68
2022-08-17T20:09:14.321Z,24.60
2022-08-17T20:12:11.398Z,24.53
2022-08-17T20:14:53.409Z,24.51
2022-08-17T20:17:28.654Z,24.40
2022-08-17T20:20:07.662Z,24.37
2022-08-17T20:23:12.586Z,24.34
2022-08-17T20:25:52.276Z,24.37
2022-08-17T20:28:26.106Z,24.39
2022-08-17T20:30:54.326Z,24.37
2022-08-17T20:33:25.882Z,24.38
2022-08-17T20:36:24.099Z,24.36
2022-08-17T20:38:56.086Z,24.36
2022-08-17T20:41:29.528Z,24.33
2022-08-17T20:43:57.008Z,24.27
2022-08-17T20:46:36.564Z,24.24
2022-08-17T20:49:26.137Z,24.20
2022-08-17T20:52:01.382Z,24.17
2022-08-17T20:54:44.395Z,24.12
2022-08-17T20:57:30.702Z,23.98
2022-08-17T20:59:58.266Z,23.95
2022-08-17T21:02:27.846Z,23.88
2022-08-17T21:05:06.941Z,23.84
2022-08-17T21:07:42.739Z,23.85
2022-08-17T21:10:24.099Z,23.85
2022-08-17T21:13:39.502Z,23.84
2022-08-17T21:16:25.874Z,23.85
2022-08-17T21:19:06.922Z,23.87
2022-08-17T21:21:49.205Z,23.86
2022-08-17T21:24:51.912Z,23.86
2022-08-17T21:27:39.181Z,23.83
2022-08-17T21:30:10.041Z,23.79
2022-08-17T21:32:42.183Z,23.74
2022-08-17T21:35:28.639Z,23.70
2022-08-17T21:38:02.642Z,23.68
2022-08-17T21:40:32.007Z,23.67
2022-08-17T21:43:17.206Z,23.65
2022-08-17T21:45:55.606Z,23.66
2022-08-17T21:48:25.296Z,23.65
2022-08-17T21:51:12.875Z,23.58
2022-08-17T21:53:48.237Z,23.55
2022-08-17T21:56:40.496Z,23.53
2022-08-17T21:59:21.846Z,23.51
2022-08-17T22:02:01.409Z,23.47
2022-08-17T22:04:38.372Z,23.43
2022-08-17T22:07:09.917Z,23.41
2022-08-17T22:09:47.014Z,23.42
2022-08-17T22:12:23.816Z,23.43
2022-08-17T22:15:02.055Z,23.42
2022-08-17T22:17:45.025Z,23.44
2022-08-17T22:20:17.629Z,23.50
2022-08-17T22:27:02.463Z,23.55
2022-08-17T22:29:42.844Z,23.52
2022-08-17T22:32:10.657Z,23.49
2022-08-17T22:34:40.856Z,23.49
2022-08-17T22:37:28.057Z,23.48
2022-08-17T22:39:59.648Z,23.44
2022-08-17T22:42:29.193Z,23.39
2022-08-17T22:44:56.949Z,23.35
2022-08-17T22:47:38.905Z,23.33
2022-08-17T22:50:21.294Z,23.34
2022-08-17T22:53:17.778Z,23.34
2022-08-17T22:56:12.877Z,23.36
2022-08-17T22:59:12.314Z,23.33
2022-08-17T23:01:41.369Z,23.26
2022-08-17T23:08:24.144Z,23.20
2022-08-17T23:10:52.224Z,23.18
2022-08-17T23:13:21.618Z,23.16
2022-08-17T23:15:51.681Z,23.17
2022-08-17T23:18:19.982Z,23.19
2022-08-17T23:20:47.909Z,23.23
2022-08-17T23:23:18.034Z,23.24
2022-08-17T23:25:48.702Z,23.07
2022-08-17T23:28:17.423Z,22.98
2022-08-17T23:30:48.705Z,22.87
2022-08-17T23:33:31.385Z,22.79
2022-08-17T23:35:59.422Z,22.78
2022-08-17T23:38:28.422Z,22.82
2022-08-17T23:41:00.621Z,22.85
2022-08-17T23:43:30.741Z,22.89
2022-08-17T23:46:00.672Z,22.93
2022-08-17T23:48:35.975Z,22.96
2022-08-17T23:51:17.855Z,22.92
2022-08-17T23:53:48.942Z,22.90
2022-08-17T23:56:20.054Z,22.88
2022-08-17T23:58:48.093Z,22.85
